The Little Minch, United Kingdom
Current Conditions -  °F | °C
As of 3:50 AM on Sunday 25 Jan 2015 (Local Time) from EGPL Reporting Station
Overcast Overcast  
Wind Chill:   Ceiling: 700
Heat Index:   Visibility: 3mi
Dew Point:   Wind: 23mph
Humidity: 93%   Direction: 220°SW
Pressure: 30"   Gusts: NA
Location:  57.5°N, 7°W
Report Text: EGPL 250350Z AUTO 22020KT 5000 OVC007/// 09/08 Q1016
Loading
Personal Weather Stations






























Interactive Weather Map New forecast layout! Learn more

10-Day Weather Forecast

Advertisements
Track Severe Weather on mobile